Terminal Aerodrome Forecast
Issued by NWS Denver/Boulder, CO

Home | Current Version | Previous Version | Text Only | Print | Product List | Glossary On
Versions: 1 2 3 4 5 6 7 8 9 10 11 12 13 14 15 16 17 18 19 20 21 22 23 24 25 26 27 28 29 30 31 32 33 34 35 36 37 38 39 40 41 42 43 44 45 46 47 48 49 50
335
FTUS45 KBOU 282320
TAFDEN
TAF
KDEN 282320Z 2900/3006 09013KT P6SM SCT080 BKN140
     FM290200 16009KT P6SM FEW080 SCT160
     FM290700 21009KT P6SM FEW080 SCT160
     FM291600 VRB05KT P6SM FEW080 SCT160
     FM291900 14007KT P6SM SCT070 SCT160
     FM292200 23011KT P6SM SCT070 BKN140 PROB30 2922/3002 VRB15G25KT
      -TSRA BKN070CB=

USA.gov is the U.S. government's official web portal to all federal, state and local government web resources and services.